Observations at @wa for Latest


KALW 170453Z AUTO 10006KT 10SM CLR 23/10 A2985 RMK AO2 SLP099 T02280100=
KAWO 170456Z AUTO 01010KT 10SM CLR 14/11 A3006 RMK AO2 SLP183 T01440111=
KBFI 170453Z 00000KT 10SM FEW150 21/11 A3002 RMK AO2 SLP164 T02060111=
KBLI 170453Z 18010G17KT 10SM CLR 16/12 A3000 RMK AO2 SLP163 T01560117=
KCLM 170453Z AUTO 28013KT 10SM SCT006 12/11 A3006 RMK AO2 SLP177 T01170111=
KEAT 170455Z AUTO 26011KT 10SM CLR 24/09 A2987 RMK AO2 SLP106 T02390089=
KELN 170453Z AUTO 31015G23KT 10SM CLR 20/10 A2992 RMK AO2 SLP121 T02000100=
KEPH 170453Z AUTO 32014KT 10SM CLR 27/09 A2982 RMK AO2 SLP087 T02670094=
KFHR 170453Z AUTO 00000KT 10SM CLR 12/09 A3001 RMK AO2 SLP163 T01220094 $=
KGEG 170453Z 22005KT 10SM FEW100 FEW250 24/08 A2989 RMK AO2 SLP101 T02440083=
KGRF 170458Z AUTO 26005KT 10SM CLR 17/15 A3004 RMK AO2 SLP176 T01740154 $=
KHQM 170453Z AUTO 29012KT 7SM OVC006 13/12 A3010 RMK AO2 SLP195 T01280122=
KHQM 170533Z AUTO 29012KT 5SM BR OVC004 12/12 A3010 RMK AO2 T01220122=
KKLS 170456Z AUTO 30005KT 10SM BKN014 16/13 A3008 RMK AO2 SLP191 T01560128=
KMWH 170452Z AUTO 34009KT 10SM CLR 27/10 A2983 RMK AO2 SLP091 T02720100=
KNOW 170450Z AUTO 28014G20KT 10SM OVC004 12/11 A3005 RMK AO2 T01170108=
KNOW 170510Z AUTO 28018KT 10SM OVC004 12/11 A3005 RMK AO2 T01150107=
KNOW 170530Z AUTO 28019G22KT 10SM OVC004 11/11 A3005 RMK AO2 T01130107=
KNUW 170456Z 20007KT 10SM FEW005 SCT010 SCT150 BKN250 13/11 A3008 RMK AO2
 SLP184 T01330106 $=
KOLM 170454Z AUTO 19003KT 10SM CLR 16/11 A3004 RMK AO2 SLP174 T01560111 $=
KOMK 170453Z AUTO 31012KT 10SM CLR 23/09 A2988 RMK AO2 SLP110 T02280089=
KORS 170455Z AUTO 16007KT 10SM CLR 14/12 A2999 RMK AO2=
KORS 170515Z AUTO 16005G12KT 10SM CLR 14/12 A2999 RMK AO2=
KORS 170535Z AUTO 17007G13KT 10SM CLR 14/12 A2999 RMK AO2=
KPAE 170453Z AUTO 02006KT 10SM CLR 15/12 A3005 RMK AO2 SLP175 T01500117=
KPSC 170453Z 00000KT 10SM CLR 26/10 A2981 RMK AO2 SLP092 T02610100=
KPUW 170453Z AUTO 00000KT 10SM CLR 19/13 A2993 RMK AO2 SLP120 T01890128=
KPWT 170456Z AUTO VRB03KT 10SM CLR 18/13 A3004 RMK AO2 SLP189 T01780133=
KRNT 170453Z AUTO 00000KT 10SM CLR 21/12 A3001 RMK AO2 SLP169 T02110122 $=
KSEA 170453Z 27003KT 10SM FEW045 FEW150 SCT250 20/12 A3003 RMK AO2 SLP175
 T02000117=
KSFF 170453Z AUTO 03003KT 10SM CLR 22/09 A2987 RMK AO2 SLP099 T02220089=
KSHN 170453Z AUTO 24010KT 10SM OVC050 16/11 A3003 RMK AO2 SLP170 T01560111 $=
KSKA 170458Z AUTO 26006KT 10SM CLR 21/09 A2990 RMK AO2 SLP111 T02110093 $=
KSMP 170456Z AUTO VRB06KT 10SM CLR 12/09 A3009 RMK AO2 SLP176 T01170089=
KTCM 170458Z AUTO 27008KT 10SM CLR 18/15 A3004 RMK AO2 SLP176 T01800152 $=
KTIW 170453Z AUTO 27004KT 10SM CLR 17/12 A3005 RMK AO2 SLP173 T01670122=
KUIL 170453Z AUTO 33005KT 9SM OVC006 12/11 A3010 RMK AO2 SLP194 T01220111=
KUIL 170546Z AUTO 00000KT 2 1/2SM BR OVC006 12/11 A3011 RMK AO2 T01170111=
KVUO 170453Z AUTO 32005KT 10SM CLR 19/12 A3003 RMK AO2 SLP169 T01940117=
KYKM 170453Z AUTO VRB06KT 10SM CLR 23/08 A2988 RMK AO2 SLP111 T02330083 $=